ROMMA est une association bénévole à but non lucratif. Votre soutien est indispensable : ADHERER à ROMMA ou FAIRE un DON

Montélimar - (26, Drôme)

Basse vallée du Rhône (88 m)   Longitude: 04° 45' E   Latitude: 44° 32' N Station partenaire n°164
 

Détail journalier du     <<     >>

Température Precipitation Humidité Pression Vent Dir Rafale Dir. rafale Ensol.
Heure (°C) (mm) (%) (hPa) (km/h) (km/h) (min)
01:00 22.3046102711NE31NE0
02:00 20.905010285ENE19NE0
03:00 19.2055102800---0
04:00 18.6058102800---0
05:00 18.2059102800---0
06:00 17.6062102806ENE0
07:00 17.30631028011NE0
08:00 17.406410282---18NE4
09:00 19.106110291---13NE60
10:00 21.005710284NE18NE60
11:00 23.405110298NE27NE60
12:00 25.4047102813NE31NE60
13:00 27.404410288NE26NE60
14:00 29.104110275N21N52
15:00 30.303710266N24NO55
16:00 31.403410264---19NNE60
17:00 31.703310251---11N60
18:00 31.703210251---10NNO54
19:00 30.903410251---15NNO2
20:00 28.904010251---15NNO0
21:00 26.2045102600---0
22:00 24.90491025011NNO0
23:00 24.2049102600---0
minuit 20.9059102600---0

Graphique du 13-09-2019

 

Serveur OMMA